sensor_id;sensor_type;location;lat;lon;timestamp;pressure;altitude;pressure_sealevel;temperature;humidity
71966;BME280;59836;52.132;5.442;2023-05-19T00:00:58;102838.16;;;9.84;76.13
71966;BME280;59836;52.132;5.442;2023-05-19T00:03:26;102839.19;;;9.83;76.21
71966;BME280;59836;52.132;5.442;2023-05-19T00:05:53;102831.50;;;9.80;76.38
71966;BME280;59836;52.132;5.442;2023-05-19T00:08:22;102835.25;;;9.79;76.02
71966;BME280;59836;52.132;5.442;2023-05-19T00:10:49;102831.50;;;9.80;76.27
71966;BME280;59836;52.132;5.442;2023-05-19T00:13:16;102829.81;;;9.79;76.05
71966;BME280;59836;52.132;5.442;2023-05-19T00:15:43;102830.44;;;9.74;76.19
71966;BME280;59836;52.132;5.442;2023-05-19T00:18:09;102830.25;;;9.75;76.12
71966;BME280;59836;52.132;5.442;2023-05-19T00:20:39;102822.13;;;9.75;76.21
71966;BME280;59836;52.132;5.442;2023-05-19T00:23:05;102815.66;;;9.77;76.58
71966;BME280;59836;52.132;5.442;2023-05-19T00:25:32;102810.88;;;9.72;76.21
71966;BME280;59836;52.132;5.442;2023-05-19T00:27:58;102811.09;;;9.70;76.29
71966;BME280;59836;52.132;5.442;2023-05-19T00:30:25;102816.53;;;9.70;76.55
71966;BME280;59836;52.132;5.442;2023-05-19T00:32:52;102813.19;;;9.68;76.81
71966;BME280;59836;52.132;5.442;2023-05-19T00:35:19;102810.69;;;9.67;77.13
71966;BME280;59836;52.132;5.442;2023-05-19T00:37:45;102808.19;;;9.65;76.85
71966;BME280;59836;52.132;5.442;2023-05-19T00:40:12;102810.72;;;9.60;77.19
71966;BME280;59836;52.132;5.442;2023-05-19T00:42:39;102811.75;;;9.59;77.22
71966;BME280;59836;52.132;5.442;2023-05-19T00:45:06;102815.94;;;9.55;77.04
71966;BME280;59836;52.132;5.442;2023-05-19T00:47:33;102813.66;;;9.52;77.05
71966;BME280;59836;52.132;5.442;2023-05-19T00:50:00;102812.00;;;9.51;77.08
71966;BME280;59836;52.132;5.442;2023-05-19T00:52:26;102807.84;;;9.48;77.09
71966;BME280;59836;52.132;5.442;2023-05-19T00:54:54;102807.44;;;9.44;77.50
71966;BME280;59836;52.132;5.442;2023-05-19T00:57:20;102806.63;;;9.44;77.67
71966;BME280;59836;52.132;5.442;2023-05-19T00:59:47;102802.44;;;9.41;77.54
71966;BME280;59836;52.132;5.442;2023-05-19T01:02:14;102809.94;;;9.39;77.75
71966;BME280;59836;52.132;5.442;2023-05-19T01:04:42;102810.38;;;9.36;77.58
71966;BME280;59836;52.132;5.442;2023-05-19T01:07:10;102807.47;;;9.31;77.72
71966;BME280;59836;52.132;5.442;2023-05-19T01:09:37;102805.00;;;9.29;77.96
71966;BME280;59836;52.132;5.442;2023-05-19T01:12:05;102812.25;;;9.29;78.34
71966;BME280;59836;52.132;5.442;2023-05-19T01:14:31;102817.69;;;9.29;78.42
71966;BME280;59836;52.132;5.442;2023-05-19T01:17:20;102813.72;;;9.25;78.02
71966;BME280;59836;52.132;5.442;2023-05-19T01:25:58;102814.81;;;9.17;78.48
71966;BME280;59836;52.132;5.442;2023-05-19T01:28:40;102806.25;;;9.13;78.76
71966;BME280;59836;52.132;5.442;2023-05-19T01:31:14;102810.22;;;9.11;79.12
71966;BME280;59836;52.132;5.442;2023-05-19T01:33:42;102805.44;;;9.06;78.69
71966;BME280;59836;52.132;5.442;2023-05-19T01:36:11;102801.69;;;9.07;79.39
71966;BME280;59836;52.132;5.442;2023-05-19T01:38:37;102789.63;;;9.03;78.99
71966;BME280;59836;52.132;5.442;2023-05-19T01:41:05;102797.72;;;9.03;79.35
71966;BME280;59836;52.132;5.442;2023-05-19T01:43:33;102794.41;;;9.01;79.24
71966;BME280;59836;52.132;5.442;2023-05-19T01:46:01;102793.81;;;8.99;79.35
71966;BME280;59836;52.132;5.442;2023-05-19T01:48:29;102792.56;;;8.95;79.41
71966;BME280;59836;52.132;5.442;2023-05-19T01:50:56;102799.03;;;8.94;79.82
71966;BME280;59836;52.132;5.442;2023-05-19T01:53:23;102790.28;;;8.92;79.51
71966;BME280;59836;52.132;5.442;2023-05-19T01:55:52;102795.50;;;8.86;79.82
71966;BME280;59836;52.132;5.442;2023-05-19T02:09:25;102794.22;;;8.76;80.10
71966;BME280;59836;52.132;5.442;2023-05-19T02:12:02;102792.78;;;8.73;80.05
71966;BME280;59836;52.132;5.442;2023-05-19T02:14:40;102792.97;;;8.71;80.15
71966;BME280;59836;52.132;5.442;2023-05-19T02:17:12;102781.94;;;8.66;80.01
71966;BME280;59836;52.132;5.442;2023-05-19T02:19:39;102791.75;;;8.61;80.18
71966;BME280;59836;52.132;5.442;2023-05-19T02:22:07;102790.91;;;8.60;80.51
71966;BME280;59836;52.132;5.442;2023-05-19T02:24:34;102787.38;;;8.60;80.34
71966;BME280;59836;52.132;5.442;2023-05-19T02:27:02;102780.09;;;8.53;80.75
71966;BME280;59836;52.132;5.442;2023-05-19T02:29:29;102780.09;;;8.53;80.61
71966;BME280;59836;52.132;5.442;2023-05-19T02:31:55;102782.38;;;8.50;80.48
71966;BME280;59836;52.132;5.442;2023-05-19T02:34:22;102770.94;;;8.48;80.85
71966;BME280;59836;52.132;5.442;2023-05-19T02:36:48;102778.41;;;8.46;80.91
71966;BME280;59836;52.132;5.442;2023-05-19T02:39:15;102768.00;;;8.42;80.66
71966;BME280;59836;52.132;5.442;2023-05-19T02:41:42;102773.81;;;8.39;80.91
71966;BME280;59836;52.132;5.442;2023-05-19T02:44:08;102768.22;;;8.34;81.47
71966;BME280;59836;52.132;5.442;2023-05-19T02:46:35;102772.56;;;8.35;81.33
71966;BME280;59836;52.132;5.442;2023-05-19T02:49:01;102762.56;;;8.36;81.71
71966;BME280;59836;52.132;5.442;2023-05-19T02:51:28;102767.34;;;8.34;81.41
71966;BME280;59836;52.132;5.442;2023-05-19T02:53:54;102766.94;;;8.30;81.13
71966;BME280;59836;52.132;5.442;2023-05-19T02:56:21;102765.47;;;8.27;81.27
71966;BME280;59836;52.132;5.442;2023-05-19T02:58:47;102759.44;;;8.25;81.54
71966;BME280;59836;52.132;5.442;2023-05-19T03:01:14;102754.03;;;8.25;81.59
71966;BME280;59836;52.132;5.442;2023-05-19T03:03:41;102755.94;;;8.25;81.60
71966;BME280;59836;52.132;5.442;2023-05-19T03:06:07;102750.72;;;8.17;81.45
71966;BME280;59836;52.132;5.442;2023-05-19T03:08:35;102754.25;;;8.10;81.81
71966;BME280;59836;52.132;5.442;2023-05-19T03:11:02;102752.56;;;8.09;81.84
71966;BME280;59836;52.132;5.442;2023-05-19T03:13:28;102750.50;;;8.11;82.05
71966;BME280;59836;52.132;5.442;2023-05-19T03:15:55;102753.63;;;8.08;82.12
71966;BME280;59836;52.132;5.442;2023-05-19T03:18:25;102751.50;;;8.04;82.11
71966;BME280;59836;52.132;5.442;2023-05-19T03:20:52;102755.88;;;7.98;82.39
71966;BME280;59836;52.132;5.442;2023-05-19T03:23:21;102757.31;;;7.94;82.65
71966;BME280;59836;52.132;5.442;2023-05-19T03:25:48;102752.13;;;7.92;82.75
71966;BME280;59836;52.132;5.442;2023-05-19T03:28:14;102751.69;;;7.95;82.05
71966;BME280;59836;52.132;5.442;2023-05-19T03:30:42;102749.84;;;7.96;82.27
71966;BME280;59836;52.132;5.442;2023-05-19T03:33:08;102755.88;;;7.91;82.21
71966;BME280;59836;52.132;5.442;2023-05-19T03:35:35;102759.63;;;7.90;82.33
71966;BME280;59836;52.132;5.442;2023-05-19T03:38:02;102752.09;;;7.86;82.18
71966;BME280;59836;52.132;5.442;2023-05-19T03:40:28;102756.69;;;7.85;82.56
71966;BME280;59836;52.132;5.442;2023-05-19T03:42:55;102750.88;;;7.88;82.42
71966;BME280;59836;52.132;5.442;2023-05-19T03:45:22;102747.13;;;7.89;82.89
71966;BME280;59836;52.132;5.442;2023-05-19T03:47:48;102750.88;;;7.88;82.80
71966;BME280;59836;52.132;5.442;2023-05-19T03:50:15;102743.81;;;7.87;82.96
71966;BME280;59836;52.132;5.442;2023-05-19T03:52:41;102748.38;;;7.87;82.68
71966;BME280;59836;52.132;5.442;2023-05-19T03:55:11;102755.44;;;7.81;82.53
71966;BME280;59836;52.132;5.442;2023-05-19T03:57:37;102760.63;;;7.82;82.86
71966;BME280;59836;52.132;5.442;2023-05-19T04:00:04;102754.59;;;7.80;82.70
71966;BME280;59836;52.132;5.442;2023-05-19T04:02:31;102754.16;;;7.77;82.99
71966;BME280;59836;52.132;5.442;2023-05-19T04:04:57;102758.09;;;7.74;83.17
71966;BME280;59836;52.132;5.442;2023-05-19T04:07:24;102755.84;;;7.78;83.05
71966;BME280;59836;52.132;5.442;2023-05-19T04:09:50;102761.03;;;7.79;83.00
71966;BME280;59836;52.132;5.442;2023-05-19T04:12:17;102754.41;;;7.82;83.32
71966;BME280;59836;52.132;5.442;2023-05-19T04:14:43;102755.22;;;7.82;83.37
71966;BME280;59836;52.132;5.442;2023-05-19T04:17:10;102755.03;;;7.84;83.44
71966;BME280;59836;52.132;5.442;2023-05-19T04:19:37;102752.50;;;7.82;83.25
71966;BME280;59836;52.132;5.442;2023-05-19T04:22:03;102757.09;;;7.82;83.46
71966;BME280;59836;52.132;5.442;2023-05-19T04:24:30;102758.53;;;7.85;83.76
71966;BME280;59836;52.132;5.442;2023-05-19T04:26:57;102760.22;;;7.86;83.75
71966;BME280;59836;52.132;5.442;2023-05-19T04:29:28;102765.03;;;7.90;84.06
71966;BME280;59836;52.132;5.442;2023-05-19T04:31:54;102765.03;;;7.97;84.42
71966;BME280;59836;52.132;5.442;2023-05-19T04:34:22;102763.75;;;8.00;84.17
71966;BME280;59836;52.132;5.442;2023-05-19T04:36:48;102759.00;;;8.02;84.27
71966;BME280;59836;52.132;5.442;2023-05-19T04:39:18;102761.50;;;8.03;84.41
71966;BME280;59836;52.132;5.442;2023-05-19T04:41:45;102757.53;;;8.06;84.58
71966;BME280;59836;52.132;5.442;2023-05-19T04:44:11;102760.06;;;8.07;84.42
71966;BME280;59836;52.132;5.442;2023-05-19T04:46:38;102750.69;;;8.10;84.47
71966;BME280;59836;52.132;5.442;2023-05-19T04:49:05;102763.78;;;8.13;84.80
71966;BME280;59836;52.132;5.442;2023-05-19T04:51:31;102768.16;;;8.14;84.66
71966;BME280;59836;52.132;5.442;2023-05-19T04:53:58;102766.72;;;8.18;85.25
71966;BME280;59836;52.132;5.442;2023-05-19T04:56:24;102759.22;;;8.20;85.03
71966;BME280;59836;52.132;5.442;2023-05-19T04:58:52;102772.56;;;8.22;85.20
71966;BME280;59836;52.132;5.442;2023-05-19T05:01:19;102766.53;;;8.26;85.50
71966;BME280;59836;52.132;5.442;2023-05-19T05:03:47;102770.47;;;8.31;85.41
71966;BME280;59836;52.132;5.442;2023-05-19T05:06:14;102767.97;;;8.36;85.45
71966;BME280;59836;52.132;5.442;2023-05-19T05:08:41;102762.78;;;8.41;85.10
71966;BME280;59836;52.132;5.442;2023-05-19T05:11:08;102772.16;;;8.45;85.27
71966;BME280;59836;52.132;5.442;2023-05-19T05:13:35;102761.78;;;8.49;85.20
71966;BME280;59836;52.132;5.442;2023-05-19T05:16:01;102765.94;;;8.51;85.35
71966;BME280;59836;52.132;5.442;2023-05-19T05:18:32;102772.19;;;8.59;85.74
71966;BME280;59836;52.132;5.442;2023-05-19T05:20:59;102773.44;;;8.63;85.34
71966;BME280;59836;52.132;5.442;2023-05-19T05:23:26;102769.69;;;8.64;85.27
71966;BME280;59836;52.132;5.442;2023-05-19T05:25:53;102764.25;;;8.70;85.05
71966;BME280;59836;52.132;5.442;2023-05-19T05:28:19;102770.09;;;8.74;85.00
71966;BME280;59836;52.132;5.442;2023-05-19T05:30:46;102778.00;;;8.76;85.49
71966;BME280;59836;52.132;5.442;2023-05-19T05:33:12;102764.06;;;8.79;85.44
71966;BME280;59836;52.132;5.442;2023-05-19T05:35:39;102768.84;;;8.83;85.55
71966;BME280;59836;52.132;5.442;2023-05-19T05:38:06;102771.75;;;8.89;85.28
71966;BME280;59836;52.132;5.442;2023-05-19T05:40:32;102763.84;;;8.94;85.53
71966;BME280;59836;52.132;5.442;2023-05-19T05:42:59;102761.13;;;8.94;85.54
71966;BME280;59836;52.132;5.442;2023-05-19T05:45:25;102772.16;;;8.99;85.43
71966;BME280;59836;52.132;5.442;2023-05-19T05:47:52;102777.75;;;9.04;84.88
71966;BME280;59836;52.132;5.442;2023-05-19T05:50:19;102773.78;;;9.07;85.19
71966;BME280;59836;52.132;5.442;2023-05-19T05:52:46;102777.53;;;9.12;85.30
71966;BME280;59836;52.132;5.442;2023-05-19T05:55:14;102778.34;;;9.20;85.33
71966;BME280;59836;52.132;5.442;2023-05-19T05:57:42;102776.66;;;9.25;84.94
71966;BME280;59836;52.132;5.442;2023-05-19T06:00:09;102776.63;;;9.32;85.16
71966;BME280;59836;52.132;5.442;2023-05-19T06:02:45;102772.47;;;9.36;85.42
71966;BME280;59836;52.132;5.442;2023-05-19T06:05:12;102770.78;;;9.42;85.29
71966;BME280;59836;52.132;5.442;2023-05-19T06:07:39;102776.59;;;9.45;84.50
71966;BME280;59836;52.132;5.442;2023-05-19T06:10:07;102767.84;;;9.50;84.47
71966;BME280;59836;52.132;5.442;2023-05-19T06:12:34;102766.16;;;9.56;84.56
71966;BME280;59836;52.132;5.442;2023-05-19T06:15:01;102775.06;;;9.63;84.46
71966;BME280;59836;52.132;5.442;2023-05-19T06:17:28;102772.53;;;9.68;83.95
71966;BME280;59836;52.132;5.442;2023-05-19T06:19:55;102780.63;;;9.75;83.86
71966;BME280;59836;52.132;5.442;2023-05-19T06:22:21;102772.06;;;9.78;83.84
71966;BME280;59836;52.132;5.442;2023-05-19T06:24:47;102776.84;;;9.83;83.45
71966;BME280;59836;52.132;5.442;2023-05-19T06:27:14;102779.75;;;9.88;83.57
71966;BME280;59836;52.132;5.442;2023-05-19T06:29:40;102770.97;;;9.93;83.21
71966;BME280;59836;52.132;5.442;2023-05-19T06:32:07;102772.19;;;9.97;83.37
71966;BME280;59836;52.132;5.442;2023-05-19T06:34:33;102767.78;;;10.02;83.48
71966;BME280;59836;52.132;5.442;2023-05-19T06:37:00;102768.78;;;10.08;83.67
71966;BME280;59836;52.132;5.442;2023-05-19T06:39:27;102771.44;;;10.15;83.22
71966;BME280;59836;52.132;5.442;2023-05-19T06:41:54;102768.69;;;10.22;82.60
71966;BME280;59836;52.132;5.442;2023-05-19T06:44:21;102768.63;;;10.28;82.00
71966;BME280;59836;52.132;5.442;2023-05-19T06:46:47;102774.03;;;10.35;81.53
71966;BME280;59836;52.132;5.442;2023-05-19T06:49:14;102772.94;;;10.43;80.96
71966;BME280;59836;52.132;5.442;2023-05-19T06:51:40;102763.91;;;10.49;81.02
71966;BME280;59836;52.132;5.442;2023-05-19T06:54:07;102760.56;;;10.54;80.70
71966;BME280;59836;52.132;5.442;2023-05-19T06:56:36;102762.16;;;10.61;80.60
71966;BME280;59836;52.132;5.442;2023-05-19T06:59:02;102766.69;;;10.68;81.10
71966;BME280;59836;52.132;5.442;2023-05-19T07:01:29;102776.22;;;10.77;80.26
71966;BME280;59836;52.132;5.442;2023-05-19T07:03:56;102776.13;;;10.84;80.48
71966;BME280;59836;52.132;5.442;2023-05-19T07:06:23;102774.63;;;10.88;80.07
71966;BME280;59836;52.132;5.442;2023-05-19T07:08:49;102776.44;;;10.94;79.37
71966;BME280;59836;52.132;5.442;2023-05-19T07:11:16;102770.97;;;11.01;78.67
71966;BME280;59836;52.132;5.442;2023-05-19T07:13:42;102764.66;;;11.07;79.19
71966;BME280;59836;52.132;5.442;2023-05-19T07:16:09;102756.66;;;11.12;77.32
71966;BME280;59836;52.132;5.442;2023-05-19T07:18:35;102770.34;;;11.17;77.78
71966;BME280;59836;52.132;5.442;2023-05-19T07:21:02;102763.19;;;11.23;77.14
71966;BME280;59836;52.132;5.442;2023-05-19T07:23:29;102761.44;;;11.29;76.73
71966;BME280;59836;52.132;5.442;2023-05-19T07:25:55;102755.97;;;11.35;76.91
71966;BME280;59836;52.132;5.442;2023-05-19T07:28:22;102758.59;;;11.42;76.57
71966;BME280;59836;52.132;5.442;2023-05-19T07:30:48;102764.56;;;11.51;76.88
71966;BME280;59836;52.132;5.442;2023-05-19T07:33:15;102759.03;;;11.58;76.66
71966;BME280;59836;52.132;5.442;2023-05-19T07:35:41;102768.50;;;11.67;76.25
71966;BME280;59836;52.132;5.442;2023-05-19T07:38:08;102760.03;;;11.75;74.97
71966;BME280;59836;52.132;5.442;2023-05-19T07:40:34;102764.09;;;11.85;73.36
71966;BME280;59836;52.132;5.442;2023-05-19T07:43:01;102764.84;;;11.92;73.47
71966;BME280;59836;52.132;5.442;2023-05-19T07:45:27;102765.56;;;11.99;73.25
71966;BME280;59836;52.132;5.442;2023-05-19T07:47:54;102757.34;;;12.06;73.72
71966;BME280;59836;52.132;5.442;2023-05-19T07:50:20;102756.41;;;12.12;73.09
71966;BME280;59836;52.132;5.442;2023-05-19T07:52:47;102757.38;;;12.18;72.08
71966;BME280;59836;52.132;5.442;2023-05-19T07:55:15;102756.88;;;12.21;72.07
71966;BME280;59836;52.132;5.442;2023-05-19T07:57:41;102748.25;;;12.24;72.61
71966;BME280;59836;52.132;5.442;2023-05-19T08:00:08;102748.38;;;12.29;71.70
71966;BME280;59836;52.132;5.442;2023-05-19T08:02:37;102746.97;;;12.38;70.24
71966;BME280;59836;52.132;5.442;2023-05-19T08:05:04;102738.94;;;12.44;70.42
71966;BME280;59836;52.132;5.442;2023-05-19T08:07:30;102735.16;;;12.45;69.71
71966;BME280;59836;52.132;5.442;2023-05-19T08:09:57;102730.44;;;12.52;69.21
71966;BME280;59836;52.132;5.442;2023-05-19T08:12:23;102737.91;;;12.68;69.53
71966;BME280;59836;52.132;5.442;2023-05-19T08:14:50;102732.91;;;12.77;69.00
71966;BME280;59836;52.132;5.442;2023-05-19T08:17:17;102726.50;;;12.95;67.83
71966;BME280;59836;52.132;5.442;2023-05-19T08:19:44;102736.56;;;13.07;67.33
71966;BME280;59836;52.132;5.442;2023-05-19T08:22:11;102726.59;;;13.12;67.20
71966;BME280;59836;52.132;5.442;2023-05-19T08:24:37;102732.16;;;13.18;66.44
71966;BME280;59836;52.132;5.442;2023-05-19T08:27:04;102724.94;;;13.23;65.21
71966;BME280;59836;52.132;5.442;2023-05-19T08:29:31;102725.59;;;13.31;64.87
71966;BME280;59836;52.132;5.442;2023-05-19T08:31:58;102721.22;;;13.41;64.54
71966;BME280;59836;52.132;5.442;2023-05-19T08:34:25;102715.13;;;13.51;65.95
71966;BME280;59836;52.132;5.442;2023-05-19T08:36:52;102709.19;;;13.54;64.80
71966;BME280;59836;52.132;5.442;2023-05-19T08:39:18;102713.66;;;13.61;65.46
71966;BME280;59836;52.132;5.442;2023-05-19T08:41:49;102719.56;;;13.69;64.00
71966;BME280;59836;52.132;5.442;2023-05-19T08:44:15;102707.69;;;13.76;62.28
71966;BME280;59836;52.132;5.442;2023-05-19T08:46:45;102698.16;;;13.78;61.44
71966;BME280;59836;52.132;5.442;2023-05-19T08:49:15;102704.31;;;13.85;60.96
71966;BME280;59836;52.132;5.442;2023-05-19T08:54:24;102699.91;;;14.01;58.75
71966;BME280;59836;52.132;5.442;2023-05-19T08:56:57;102698.03;;;14.02;59.25
71966;BME280;59836;52.132;5.442;2023-05-19T08:59:23;102692.09;;;14.05;59.02
71966;BME280;59836;52.132;5.442;2023-05-19T09:01:52;102687.78;;;14.09;59.69
71966;BME280;59836;52.132;5.442;2023-05-19T09:04:20;102687.13;;;14.19;59.50
71966;BME280;59836;52.132;5.442;2023-05-19T09:06:47;102690.75;;;14.25;58.65
71966;BME280;59836;52.132;5.442;2023-05-19T09:09:15;102689.13;;;14.24;57.84
71966;BME280;59836;52.132;5.442;2023-05-19T09:11:45;102682.31;;;14.26;59.07
71966;BME280;59836;52.132;5.442;2023-05-19T09:14:11;102691.41;;;14.32;58.48
71966;BME280;59836;52.132;5.442;2023-05-19T09:16:38;102689.19;;;14.29;57.26
71966;BME280;59836;52.132;5.442;2023-05-19T09:19:12;102684.22;;;14.26;56.86
71966;BME280;59836;52.132;5.442;2023-05-19T09:21:40;102691.41;;;14.32;56.24
71966;BME280;59836;52.132;5.442;2023-05-19T09:24:08;102687.66;;;14.38;56.68
71966;BME280;59836;52.132;5.442;2023-05-19T09:26:39;102678.75;;;14.43;56.73
71966;BME280;59836;52.132;5.442;2023-05-19T09:29:13;102687.31;;;14.52;55.62
71966;BME280;59836;52.132;5.442;2023-05-19T09:32:07;102679.78;;;14.59;55.48
71966;BME280;59836;52.132;5.442;2023-05-19T09:34:33;102677.88;;;14.59;55.37
71966;BME280;59836;52.132;5.442;2023-05-19T09:37:00;102677.13;;;14.64;55.15
71966;BME280;59836;52.132;5.442;2023-05-19T09:39:26;102671.16;;;14.67;56.05
71966;BME280;59836;52.132;5.442;2023-05-19T09:41:55;102675.63;;;14.73;55.81
71966;BME280;59836;52.132;5.442;2023-05-19T09:44:25;102673.81;;;14.79;55.69
71966;BME280;59836;52.132;5.442;2023-05-19T09:46:56;102672.78;;;14.85;55.67
71966;BME280;59836;52.132;5.442;2023-05-19T09:49:28;102668.78;;;14.93;53.33
71966;BME280;59836;52.132;5.442;2023-05-19T09:52:06;102669.94;;;14.97;54.47
71966;BME280;59836;52.132;5.442;2023-05-19T09:54:33;102668.59;;;15.00;54.55
71966;BME280;59836;52.132;5.442;2023-05-19T09:57:01;102666.13;;;14.98;53.65
71966;BME280;59836;52.132;5.442;2023-05-19T09:59:29;102673.75;;;14.96;55.14
71966;BME280;59836;52.132;5.442;2023-05-19T10:01:59;102670.75;;;14.98;55.44
71966;BME280;59836;52.132;5.442;2023-05-19T10:04:27;102669.94;;;14.97;54.33
71966;BME280;59836;52.132;5.442;2023-05-19T10:06:55;102664.78;;;15.01;53.37
71966;BME280;59836;52.132;5.442;2023-05-19T10:09:26;102672.72;;;15.02;54.04
71966;BME280;59836;52.132;5.442;2023-05-19T10:11:55;102659.69;;;15.10;53.43
71966;BME280;59836;52.132;5.442;2023-05-19T10:14:30;102661.94;;;15.13;53.99
71966;BME280;59836;52.132;5.442;2023-05-19T10:16:57;102648.00;;;15.14;54.09
71966;BME280;59836;52.132;5.442;2023-05-19T10:19:27;102660.56;;;15.15;55.02
71966;BME280;59836;52.132;5.442;2023-05-19T10:21:54;102648.94;;;15.25;54.34
71966;BME280;59836;52.132;5.442;2023-05-19T10:24:21;102648.44;;;15.28;54.58
71966;BME280;59836;52.132;5.442;2023-05-19T10:26:52;102646.06;;;15.37;53.92
71966;BME280;59836;52.132;5.442;2023-05-19T10:29:27;102652.66;;;15.41;55.33
71966;BME280;59836;52.132;5.442;2023-05-19T10:31:56;102644.81;;;15.50;54.59
71966;BME280;59836;52.132;5.442;2023-05-19T10:37:27;102639.44;;;15.60;54.84
71966;BME280;59836;52.132;5.442;2023-05-19T10:39:57;102630.75;;;15.69;53.83
71966;BME280;59836;52.132;5.442;2023-05-19T10:42:32;102632.09;;;15.66;53.85
71966;BME280;59836;52.132;5.442;2023-05-19T10:45:18;102635.13;;;15.70;54.50
71966;BME280;59836;52.132;5.442;2023-05-19T10:47:45;102635.75;;;15.77;53.18
71966;BME280;59836;52.132;5.442;2023-05-19T10:50:12;102628.09;;;15.79;52.25
71966;BME280;59836;52.132;5.442;2023-05-19T10:52:39;102625.38;;;15.79;53.83
71966;BME280;59836;52.132;5.442;2023-05-19T10:55:07;102627.00;;;15.80;54.58
71966;BME280;59836;52.132;5.442;2023-05-19T10:57:33;102623.16;;;15.76;52.81
71966;BME280;59836;52.132;5.442;2023-05-19T11:00:26;102628.63;;;15.76;52.67
71966;BME280;59836;52.132;5.442;2023-05-19T11:02:53;102629.72;;;15.75;52.57
71966;BME280;59836;52.132;5.442;2023-05-19T11:05:28;102629.19;;;15.78;52.76
71966;BME280;59836;52.132;5.442;2023-05-19T11:07:57;102632.81;;;15.84;50.61
71966;BME280;59836;52.132;5.442;2023-05-19T11:10:30;102615.56;;;15.83;49.12
71966;BME280;59836;52.132;5.442;2023-05-19T11:12:57;102621.09;;;15.88;51.21
71966;BME280;59836;52.132;5.442;2023-05-19T11:15:27;102610.22;;;15.99;53.79
71966;BME280;59836;52.132;5.442;2023-05-19T11:17:54;102617.97;;;16.12;51.58
71966;BME280;59836;52.132;5.442;2023-05-19T11:20:22;102621.56;;;16.18;51.29
71966;BME280;59836;52.132;5.442;2023-05-19T11:25:42;102602.44;;;16.23;49.40
71966;BME280;59836;52.132;5.442;2023-05-19T11:28:10;102596.16;;;16.22;48.97
71966;BME280;59836;52.132;5.442;2023-05-19T11:30:40;102607.13;;;16.28;49.11
71966;BME280;59836;52.132;5.442;2023-05-19T11:33:11;102611.00;;;16.32;48.61
71966;BME280;59836;52.132;5.442;2023-05-19T11:35:39;102599.22;;;16.36;48.32
71966;BME280;59836;52.132;5.442;2023-05-19T11:38:06;102597.03;;;16.38;48.42
71966;BME280;59836;52.132;5.442;2023-05-19T11:40:32;102599.53;;;16.40;48.51
71966;BME280;59836;52.132;5.442;2023-05-19T11:42:59;102598.97;;;16.38;49.09
71966;BME280;59836;52.132;5.442;2023-05-19T11:45:28;102597.31;;;16.37;49.00
71966;BME280;59836;52.132;5.442;2023-05-19T11:47:57;102580.94;;;16.42;50.31
71966;BME280;59836;52.132;5.442;2023-05-19T11:50:30;102582.56;;;16.48;49.31
71966;BME280;59836;52.132;5.442;2023-05-19T11:52:58;102588.34;;;16.52;47.54
71966;BME280;59836;52.132;5.442;2023-05-19T11:55:26;102588.66;;;16.61;47.23
71966;BME280;59836;52.132;5.442;2023-05-19T11:57:56;102584.84;;;16.67;46.62
71966;BME280;59836;52.132;5.442;2023-05-19T12:00:34;102579.34;;;16.67;45.65
71966;BME280;59836;52.132;5.442;2023-05-19T12:03:04;102580.19;;;16.67;45.59
71966;BME280;59836;52.132;5.442;2023-05-19T12:05:32;102583.50;;;16.75;46.83
71966;BME280;59836;52.132;5.442;2023-05-19T12:08:07;102585.97;;;16.81;47.71
71966;BME280;59836;52.132;5.442;2023-05-19T12:10:34;102586.84;;;16.87;47.41
71966;BME280;59836;52.132;5.442;2023-05-19T12:13:01;102583.25;;;16.87;47.31
71966;BME280;59836;52.132;5.442;2023-05-19T12:15:28;102588.75;;;16.87;47.52
71966;BME280;59836;52.132;5.442;2023-05-19T12:17:58;102582.72;;;16.85;46.05
71966;BME280;59836;52.132;5.442;2023-05-19T12:20:26;102582.44;;;16.81;44.96
71966;BME280;59836;52.132;5.442;2023-05-19T12:22:54;102576.97;;;16.81;45.83
71966;BME280;59836;52.132;5.442;2023-05-19T12:25:22;102582.13;;;16.77;47.00
71966;BME280;59836;52.132;5.442;2023-05-19T12:27:49;102579.41;;;16.77;46.41
71966;BME280;59836;52.132;5.442;2023-05-19T12:30:24;102576.66;;;16.82;46.90
71966;BME280;59836;52.132;5.442;2023-05-19T12:32:52;102576.97;;;16.86;47.03
71966;BME280;59836;52.132;5.442;2023-05-19T12:35:19;102581.34;;;16.82;46.12
71966;BME280;59836;52.132;5.442;2023-05-19T12:37:48;102567.63;;;16.82;45.28
71966;BME280;59836;52.132;5.442;2023-05-19T12:40:15;102556.66;;;16.77;45.40
71966;BME280;59836;52.132;5.442;2023-05-19T12:42:46;102559.97;;;16.79;46.51
71966;BME280;59836;52.132;5.442;2023-05-19T12:45:13;102557.50;;;16.82;48.08
71966;BME280;59836;52.132;5.442;2023-05-19T12:47:40;102561.91;;;16.94;47.30
71966;BME280;59836;52.132;5.442;2023-05-19T12:50:08;102560.31;;;17.03;44.69
71966;BME280;59836;52.132;5.442;2023-05-19T12:52:46;102545.50;;;17.04;44.70
71966;BME280;59836;52.132;5.442;2023-05-19T12:55:14;102545.50;;;17.04;44.68
71966;BME280;59836;52.132;5.442;2023-05-19T12:57:43;102557.84;;;17.12;47.27
71966;BME280;59836;52.132;5.442;2023-05-19T13:00:15;102548.81;;;17.17;46.05
71966;BME280;59836;52.132;5.442;2023-05-19T13:03:05;102537.31;;;17.20;47.82
71966;BME280;59836;52.132;5.442;2023-05-19T13:05:34;102547.19;;;17.26;46.31
71966;BME280;59836;52.132;5.442;2023-05-19T13:08:07;102545.00;;;17.28;46.02
71966;BME280;59836;52.132;5.442;2023-05-19T13:10:35;102540.06;;;17.25;47.05
71966;BME280;59836;52.132;5.442;2023-05-19T13:13:02;102538.66;;;17.27;47.19
71966;BME280;59836;52.132;5.442;2023-05-19T13:15:31;102538.41;;;17.24;47.21
71966;BME280;59836;52.132;5.442;2023-05-19T13:18:01;102547.19;;;17.31;47.51
71966;BME280;59836;52.132;5.442;2023-05-19T13:20:35;102539.78;;;17.32;48.21
71966;BME280;59836;52.132;5.442;2023-05-19T13:23:02;102549.09;;;17.31;47.37
71966;BME280;59836;52.132;5.442;2023-05-19T13:25:31;102543.34;;;17.27;46.67